Nso Crusader — ER2676 — position and weather

sailwx.info

Track history (hours):
 
Tides and Currents Weather Stations Pressure Air Temp Water Temp Dewpoint Dewpoint Depression Visibility Wind Speed Wind Dir Waves Ship Positions

Nso Crusader

Last reported at 2018-Mar-04 16:00 UTC. Time now 2018-Jun-22 11:09 UTC.
Position N 37°23' E 012°13'.
Warning: this ship's position is months out of date.

Length 72 m; draft 5.7 m.

Type: Ship. MMSI: 214182676.

Date/timePositionNaut miles runAvg speedWind from/ knotsBaromVisibWave heightAir tempDewpointWater temp
2018-Mar-04 16:00N 37°23' E 012°13'3 6.8
2018-Mar-04 15:29N 37°23' E 012°09'4 7.2
2018-Mar-04 15:00N 37°23' E 012°04'4 7.2
2018-Mar-04 14:29N 37°23' E 011°60'6 7.2
2018-Mar-04 13:37N 37°24' E 011°52'1 7.4
2018-Mar-04 13:29N 37°24' E 011°51'12 7.5
2018-Mar-04 11:56N 37°24' E 011°36'12 7.3
2018-Mar-04 10:20N 37°20' E 011°22'3 7.4
2018-Mar-04 10:00N 37°21' E 011°19'4 7.4
2018-Mar-04 09:30N 37°21' E 011°15'4 7.6
2018-Mar-04 09:00N 37°22' E 011°10'4 7.9
2018-Mar-04 08:30N 37°24' E 011°05'4 7.5
2018-Mar-04 08:00N 37°25' E 011°01'3 6.5
2018-Mar-04 07:29N 37°26' E 010°57'3 6.9
2018-Mar-04 07:00N 37°27' E 010°53'4 7.2
2018-Mar-04 06:28N 37°28' E 010°48'  
2018-Feb-27 21:13N 35°55' W 005°16'2 9.4
2018-Feb-27 21:00N 35°54' W 005°18'1 1.5
2018-Feb-27 20:31N 35°54' W 005°19'0 0.0
2018-Feb-27 20:00N 35°54' W 005°19'0 0.0
2018-Feb-27 19:30N 35°54' W 005°19'0 0.0
2018-Feb-27 19:00N 35°54' W 005°19'0 0.0
2018-Feb-27 18:30N 35°54' W 005°19'1 1.2
2018-Feb-27 18:00N 35°54' W 005°19'1 2.1
2018-Feb-27 17:30N 35°55' W 005°18'5 0.1
2018-Feb-26 07:17N 35°51' W 005°14'1 5.0
2018-Feb-26 07:00N 35°52' W 005°15'2 4.1
2018-Feb-26 06:30N 35°54' W 005°15'3 6.8
2018-Feb-26 06:00N 35°56' W 005°18'612.7
2018-Feb-26 05:30N 35°57' W 005°26'611.6
2018-Feb-26 05:00N 35°55' W 005°33'5 8.7
2018-Feb-26 04:28N 35°55' W 005°39'4 9.0
2018-Feb-26 03:59N 35°54' W 005°44'14 8.4
2018-Feb-26 02:18N 35°54' W 006°02'229 6.4
2018-Feb-24 14:11N 38°20' W 009°44'2 6.8
2018-Feb-24 13:56N 38°21' W 009°43'3 6.9
2018-Feb-24 13:28N 38°24' W 009°41'3 7.1
2018-Feb-24 13:00N 38°28' W 009°40'4 7.8
2018-Feb-24 12:30N 38°31' W 009°42'4 8.7
2018-Feb-24 12:01N 38°33' W 009°47'5 9.1
2018-Feb-24 11:30N 38°33' W 009°53'5 9.0
2018-Feb-24 11:00N 38°34' W 009°59'4 8.9
2018-Feb-24 10:30N 38°37' W 010°03'5 9.3
2018-Feb-24 10:00N 38°41' W 010°04'5 9.5
2018-Feb-24 09:30N 38°46' W 010°04'5 9.4
2018-Feb-24 09:00N 38°51' W 010°04'5 9.5
2018-Feb-24 08:30N 38°55' W 010°02'5 9.4
2018-Feb-24 08:00N 38°60' W 010°00'5 9.6
2018-Feb-24 07:30N 39°04' W 009°58'5 9.7
2018-Feb-24 07:00N 39°08' W 009°55'5 9.7
2018-Feb-24 06:30N 39°13' W 009°53'5 9.8
2018-Feb-24 06:00N 39°17' W 009°50'5 9.8
2018-Feb-24 05:30N 39°22' W 009°47'5 9.1
2018-Feb-24 05:00N 39°26' W 009°45'4 7.6
2018-Feb-24 04:29N 39°30' W 009°44'4 7.4
2018-Feb-24 03:58N 39°33' W 009°43'98 8.4
2018-Feb-23 16:21N 41°05' W 008°57'3 9.8
2018-Feb-23 16:00N 41°09' W 008°58'  
Track history (hours):
 
Tides and Currents Weather Stations Pressure Air Temp Water Temp Dewpoint Dewpoint Depression Visibility Wind Speed Wind Dir Waves Ship Positions

Nso Crusader

Last reported at 2018-Mar-04 16:00 UTC. Time now 2018-Jun-22 11:09 UTC.
Position N 37°23' E 012°13'.
Warning: this ship's position is months out of date.

Length 72 m; draft 5.7 m.

Type: Ship. MMSI: 214182676.

Date/timePositionNaut miles runAvg speedWind from/ knotsBaromVisibWave heightAir tempDewpointWater temp
2018-Mar-04 16:00N 37°23' E 012°13'3 6.8
2018-Mar-04 15:29N 37°23' E 012°09'4 7.2
2018-Mar-04 15:00N 37°23' E 012°04'4 7.2
2018-Mar-04 14:29N 37°23' E 011°60'6 7.2
2018-Mar-04 13:37N 37°24' E 011°52'1 7.4
2018-Mar-04 13:29N 37°24' E 011°51'12 7.5
2018-Mar-04 11:56N 37°24' E 011°36'12 7.3
2018-Mar-04 10:20N 37°20' E 011°22'3 7.4
2018-Mar-04 10:00N 37°21' E 011°19'4 7.4
2018-Mar-04 09:30N 37°21' E 011°15'4 7.6
2018-Mar-04 09:00N 37°22' E 011°10'4 7.9
2018-Mar-04 08:30N 37°24' E 011°05'4 7.5
2018-Mar-04 08:00N 37°25' E 011°01'3 6.5
2018-Mar-04 07:29N 37°26' E 010°57'3 6.9
2018-Mar-04 07:00N 37°27' E 010°53'4 7.2
2018-Mar-04 06:28N 37°28' E 010°48'  
2018-Feb-27 21:13N 35°55' W 005°16'2 9.4
2018-Feb-27 21:00N 35°54' W 005°18'1 1.5
2018-Feb-27 20:31N 35°54' W 005°19'0 0.0
2018-Feb-27 20:00N 35°54' W 005°19'0 0.0
2018-Feb-27 19:30N 35°54' W 005°19'0 0.0
2018-Feb-27 19:00N 35°54' W 005°19'0 0.0
2018-Feb-27 18:30N 35°54' W 005°19'1 1.2
2018-Feb-27 18:00N 35°54' W 005°19'1 2.1
2018-Feb-27 17:30N 35°55' W 005°18'5 0.1
2018-Feb-26 07:17N 35°51' W 005°14'1 5.0
2018-Feb-26 07:00N 35°52' W 005°15'2 4.1
2018-Feb-26 06:30N 35°54' W 005°15'3 6.8
2018-Feb-26 06:00N 35°56' W 005°18'612.7
2018-Feb-26 05:30N 35°57' W 005°26'611.6
2018-Feb-26 05:00N 35°55' W 005°33'5 8.7
2018-Feb-26 04:28N 35°55' W 005°39'4 9.0
2018-Feb-26 03:59N 35°54' W 005°44'14 8.4
2018-Feb-26 02:18N 35°54' W 006°02'229 6.4
2018-Feb-24 14:11N 38°20' W 009°44'2 6.8
2018-Feb-24 13:56N 38°21' W 009°43'3 6.9
2018-Feb-24 13:28N 38°24' W 009°41'3 7.1
2018-Feb-24 13:00N 38°28' W 009°40'4 7.8
2018-Feb-24 12:30N 38°31' W 009°42'4 8.7
2018-Feb-24 12:01N 38°33' W 009°47'5 9.1
2018-Feb-24 11:30N 38°33' W 009°53'5 9.0
2018-Feb-24 11:00N 38°34' W 009°59'4 8.9
2018-Feb-24 10:30N 38°37' W 010°03'5 9.3
2018-Feb-24 10:00N 38°41' W 010°04'5 9.5
2018-Feb-24 09:30N 38°46' W 010°04'5 9.4
2018-Feb-24 09:00N 38°51' W 010°04'5 9.5
2018-Feb-24 08:30N 38°55' W 010°02'5 9.4
2018-Feb-24 08:00N 38°60' W 010°00'5 9.6
2018-Feb-24 07:30N 39°04' W 009°58'5 9.7
2018-Feb-24 07:00N 39°08' W 009°55'5 9.7
2018-Feb-24 06:30N 39°13' W 009°53'5 9.8
2018-Feb-24 06:00N 39°17' W 009°50'5 9.8
2018-Feb-24 05:30N 39°22' W 009°47'5 9.1
2018-Feb-24 05:00N 39°26' W 009°45'4 7.6
2018-Feb-24 04:29N 39°30' W 009°44'4 7.4
2018-Feb-24 03:58N 39°33' W 009°43'98 8.4
2018-Feb-23 16:21N 41°05' W 008°57'3 9.8
2018-Feb-23 16:00N 41°09' W 008°58'  

Dump ship's entire track history